This is the latest recevied weather packets stored in our database for station/object KD8TSA. If no packets are shown the sender has not sent any weather packets the latest 10 day(s).
| Time | Temp. | Humidity | Pressure | Rain* | Wind** | Luminosity | Snow |
|---|---|---|---|---|---|---|---|
| 1777687669 | 6.67° C | 81% | 1016 hPa | 0 mm | - | 0 W/m² | - |
| 1777673124 | 10° C | 72% | 1014 hPa | 0 mm | - | 98 W/m² | - |
| 1777672517 | 10.56° C | 70% | 1014 hPa | 0 mm | - | 278 W/m² | - |
| 1777670996 | 10° C | 73% | 1014 hPa | 0 mm | - | 256 W/m² | - |
| 1777670390 | 10° C | 74% | 1014 hPa | 0 mm | - | 471 W/m² | - |
| 1777667964 | 10.56° C | 75% | 1013.7 hPa | 0 mm | - | 588 W/m² | - |
| 1777665843 | 11.67° C | 74% | 1013.1 hPa | 0 mm | - | 581 W/m² | - |
| 1777663721 | 11.67° C | 72% | 1012.8 hPa | 0 mm | - | 150 W/m² | - |
| 1777663418 | 12.22° C | 73% | 1012.7 hPa | 0 mm | - | 783 W/m² | - |
| 1777662812 | 12.78° C | 73% | 1012.7 hPa | 0 mm | - | 753 W/m² | - |
| 1777660684 | 10.56° C | 80% | 1012.4 hPa | 0 mm | - | 895 W/m² | - |
| 1777660381 | 11.11° C | 84% | 1012.6 hPa | 0 mm | - | 185 W/m² | - |
| 1777660072 | 10.56° C | 87% | 1012.3 hPa | 0 mm | - | 555 W/m² | - |
| 1777659465 | 10° C | 89% | 1012.5 hPa | 0 mm | - | 231 W/m² | - |
| 1777658861 | 10° C | 90% | 1012.3 hPa | 0 mm | - | 309 W/m² | - |
| 1777657951 | 8.89° C | 88% | 1012.4 hPa | 0 mm | - | 170 W/m² | - |
| 1777657647 | 9.44° C | 87% | 1012.5 hPa | 0 mm | - | 173 W/m² | - |
| 1777657344 | 9.44° C | 85% | 1012.5 hPa | 0 mm | - | 122 W/m² | - |
| 1777657042 | 10° C | 82% | 1012.3 hPa | 0 mm | - | 96 W/m² | - |
| 1777656739 | 11.11° C | 82% | 1012.1 hPa | 0 mm | - | 91 W/m² | - |
| 1777656435 | 11.11° C | 82% | 1012.1 hPa | 0 mm | - | 203 W/m² | - |
| 1777656135 | 10.56° C | 82% | 1012.1 hPa | 0 mm | - | 489 W/m² | - |
| 1777655831 | 11.11° C | 83% | 1012.1 hPa | 0 mm | - | 248 W/m² | - |
| 1777655528 | 11.11° C | 84% | 1012 hPa | 0 mm | - | 201 W/m² | - |
| 1777655225 | 10.56° C | 85% | 1011.9 hPa | 0 mm | - | 289 W/m² | - |
* Rain latest hour (hover to see other rain measurements)
** Current wind speed in m/s (hover to see current wind gust speed)